Irishtown, Illinois
Current Conditions -  °F | °C
As of 12:15 PM on Sunday 25 Jan 2015 (Local Time) from KENL Reporting Station
Drizzle Drizzle  
Wind Chill: 42°   Ceiling: 600
Heat Index: 42°   Visibility: 3mi
Dew Point: 39°   Wind: 3mph
Humidity: 91%   Direction: 220°SW
Pressure: 29.58"   Gusts: NA
Location:  38.7527°N, 89.3215°W
Report Text: KENL 251815Z AUTO 22003KT 3SM DZ OVC006 05/04 A2958 RMK AO2 P0001 T00540040
Loading
Personal Weather Stations






























Interactive Weather Map New forecast layout! Learn more

10-Day Weather Forecast

Advertisements
Track Severe Weather on mobile